createdAt,value
2023-02-12T00:01:35.936Z,0.90
2023-02-12T00:04:02.999Z,0.73
2023-02-12T00:06:29.726Z,0.40
2023-02-12T00:08:57.503Z,0.90
2023-02-12T00:11:29.143Z,0.90
2023-02-12T00:13:56.619Z,0.87
2023-02-12T00:16:25.701Z,0.50
2023-02-12T00:18:57.157Z,0.50
2023-02-12T00:21:24.398Z,0.57
2023-02-12T00:23:51.149Z,0.50
2023-02-12T00:26:19.688Z,0.77
2023-02-12T00:28:46.745Z,0.70
2023-02-12T00:31:16.582Z,0.60
2023-02-12T00:33:43.801Z,0.77
2023-02-12T00:36:15.327Z,0.80
2023-02-12T00:38:42.228Z,0.77
2023-02-12T00:41:09.257Z,0.67
2023-02-12T00:43:36.059Z,0.90
2023-02-12T00:46:02.932Z,0.70
2023-02-12T00:48:29.640Z,1.03
2023-02-12T00:50:56.376Z,0.73
2023-02-12T00:53:23.186Z,1.00
2023-02-12T00:55:49.817Z,0.50
2023-02-12T00:58:18.912Z,0.60
2023-02-12T01:00:46.019Z,0.80
2023-02-12T01:03:14.157Z,0.90
2023-02-12T01:05:40.898Z,0.67
2023-02-12T01:08:07.690Z,1.13
2023-02-12T01:10:35.132Z,0.73
2023-02-12T01:13:01.850Z,0.67
2023-02-12T01:15:28.654Z,0.70
2023-02-12T01:17:55.593Z,1.80
2023-02-12T01:20:23.673Z,1.13
2023-02-12T01:22:50.686Z,0.97
2023-02-12T01:25:20.451Z,0.60
2023-02-12T01:27:47.502Z,0.70
2023-02-12T01:30:14.977Z,1.00
2023-02-12T01:32:44.716Z,1.10
2023-02-12T01:35:11.480Z,1.07
2023-02-12T01:37:38.922Z,0.60
2023-02-12T01:40:09.207Z,1.13
2023-02-12T01:42:36.004Z,1.17
2023-02-12T01:45:14.668Z,0.80
2023-02-12T01:47:43.546Z,0.60
2023-02-12T01:50:13.845Z,1.00
2023-02-12T01:52:44.494Z,0.80
2023-02-12T01:55:11.620Z,1.50
2023-02-12T01:57:41.466Z,1.33
2023-02-12T02:00:16.761Z,2.07
2023-02-12T02:02:45.534Z,1.80
2023-02-12T02:05:13.426Z,1.80
2023-02-12T02:07:40.914Z,2.10
2023-02-12T02:10:09.114Z,1.90
2023-02-12T02:12:54.735Z,1.33
2023-02-12T02:15:21.492Z,1.70
2023-02-12T02:18:34.648Z,1.80
2023-02-12T02:21:54.069Z,2.13
2023-02-12T02:24:31.099Z,1.40
2023-02-12T02:27:16.491Z,1.47
2023-02-12T02:29:54.663Z,0.80
2023-02-12T02:32:30.274Z,0.93
2023-02-12T02:35:18.816Z,0.90
2023-02-12T02:38:05.100Z,1.03
2023-02-12T02:40:49.068Z,0.83
2023-02-12T02:43:19.137Z,1.00
2023-02-12T02:45:49.343Z,1.30
2023-02-12T02:48:24.302Z,1.93
2023-02-12T02:50:56.828Z,1.20
2023-02-12T02:53:34.164Z,1.43
2023-02-12T02:56:03.377Z,1.40
2023-02-12T02:58:35.972Z,1.63
2023-02-12T03:01:05.623Z,2.07
2023-02-12T03:03:43.690Z,1.47
2023-02-12T03:06:49.433Z,1.70
2023-02-12T03:09:24.088Z,1.63
2023-02-12T03:11:51.188Z,1.70
2023-02-12T03:14:28.397Z,2.10
2023-02-12T03:16:59.603Z,2.10
2023-02-12T03:19:40.038Z,2.20
2023-02-12T03:22:09.980Z,1.97
2023-02-12T03:25:04.837Z,1.80
2023-02-12T03:27:51.164Z,2.47
2023-02-12T03:30:18.279Z,2.37
2023-02-12T03:32:58.308Z,1.80
2023-02-12T03:35:48.510Z,3.30
2023-02-12T03:38:27.308Z,3.43
2023-02-12T03:40:59.216Z,4.13
2023-02-12T03:43:35.785Z,3.27
2023-02-12T03:46:12.238Z,3.30
2023-02-12T03:49:05.405Z,2.00
2023-02-12T03:51:37.921Z,2.00
2023-02-12T03:54:05.465Z,2.53
2023-02-12T03:56:45.670Z,3.17
2023-02-12T03:59:12.429Z,3.83
2023-02-12T04:01:39.316Z,4.17
2023-02-12T04:04:08.349Z,4.30
2023-02-12T04:06:35.428Z,4.13
2023-02-12T04:09:05.709Z,4.53
2023-02-12T04:12:07.565Z,4.40
2023-02-12T04:14:54.295Z,3.77
2023-02-12T04:17:27.122Z,3.50
2023-02-12T04:20:12.107Z,5.00
2023-02-12T04:22:38.762Z,3.43
2023-02-12T04:25:29.441Z,6.20
2023-02-12T04:28:02.184Z,4.97
2023-02-12T04:30:33.390Z,4.40
2023-02-12T04:33:03.279Z,2.97
2023-02-12T04:35:42.802Z,3.30
2023-02-12T04:38:22.051Z,3.87
2023-02-12T04:40:49.508Z,3.43
2023-02-12T04:43:26.963Z,4.37
2023-02-12T04:45:54.054Z,3.40
2023-02-12T04:48:22.158Z,4.43
2023-02-12T04:50:49.113Z,4.37
2023-02-12T04:53:15.865Z,4.13
2023-02-12T04:55:42.591Z,4.43
2023-02-12T04:58:09.712Z,3.90
2023-02-12T05:00:36.482Z,4.50
2023-02-12T05:03:03.392Z,4.23
2023-02-12T05:05:30.204Z,5.00
2023-02-12T05:07:57.063Z,5.13
2023-02-12T05:10:23.787Z,3.60
2023-02-12T05:12:52.932Z,5.50
2023-02-12T05:15:19.909Z,3.53
2023-02-12T05:17:47.000Z,3.10
2023-02-12T05:20:13.906Z,3.23
2023-02-12T05:22:40.606Z,2.97
2023-02-12T05:25:07.384Z,3.40
2023-02-12T05:27:33.930Z,4.47
2023-02-12T05:30:00.549Z,3.67
2023-02-12T05:32:27.174Z,3.23
2023-02-12T05:34:53.755Z,3.00
2023-02-12T05:37:20.364Z,3.10
2023-02-12T05:39:50.087Z,4.47
2023-02-12T05:42:16.684Z,3.67
2023-02-12T05:44:43.251Z,3.57
2023-02-12T05:47:09.873Z,3.00
2023-02-12T05:49:36.705Z,3.50
2023-02-12T05:52:03.359Z,3.47
2023-02-12T05:54:30.039Z,4.57
2023-02-12T05:56:56.664Z,3.20
2023-02-12T05:59:23.766Z,4.30
2023-02-12T06:01:51.920Z,4.57
2023-02-12T06:04:24.276Z,3.87
2023-02-12T06:06:52.344Z,4.37
2023-02-12T06:09:19.217Z,5.03
2023-02-12T06:11:45.868Z,2.77
2023-02-12T06:14:17.539Z,3.60
2023-02-12T06:16:46.821Z,3.90
2023-02-12T06:19:13.476Z,3.77
2023-02-12T06:21:40.109Z,4.40
2023-02-12T06:24:06.964Z,3.47
2023-02-12T06:26:33.668Z,4.03
2023-02-12T06:29:01.380Z,13.00
2023-02-12T06:31:31.064Z,3.27
2023-02-12T06:34:00.441Z,6.70
2023-02-12T06:36:27.275Z,6.67
2023-02-12T06:38:54.133Z,4.63
2023-02-12T06:41:21.638Z,5.07
2023-02-12T06:43:48.526Z,3.83
2023-02-12T06:46:15.516Z,3.03
2023-02-12T06:48:42.542Z,3.43
2023-02-12T06:51:12.318Z,3.27
2023-02-12T06:53:39.223Z,2.87
2023-02-12T06:56:11.270Z,2.23
2023-02-12T06:58:39.190Z,2.70
2023-02-12T07:01:17.861Z,2.03
2023-02-12T07:03:48.865Z,2.90
2023-02-12T07:06:15.852Z,3.30
2023-02-12T07:08:42.626Z,3.53
2023-02-12T07:11:09.388Z,4.10
2023-02-12T07:13:36.116Z,3.10
2023-02-12T07:16:08.888Z,2.60
2023-02-12T07:18:36.212Z,2.60
2023-02-12T07:23:56.222Z,3.53
2023-02-12T07:26:23.440Z,2.70
2023-02-12T07:28:50.880Z,2.90
2023-02-12T07:31:19.822Z,3.23
2023-02-12T07:33:47.277Z,3.23
2023-02-12T07:36:16.882Z,3.60
2023-02-12T07:38:43.825Z,3.17
2023-02-12T07:41:12.552Z,3.30
2023-02-12T07:43:44.751Z,3.03
2023-02-12T07:46:17.293Z,3.23
2023-02-12T07:48:45.163Z,2.33
2023-02-12T07:51:19.404Z,2.23
2023-02-12T07:53:46.477Z,2.43
2023-02-12T07:56:24.595Z,2.47
2023-02-12T07:58:53.477Z,2.60
2023-02-12T08:01:23.258Z,3.20
2023-02-12T08:03:51.384Z,4.33
2023-02-12T08:06:19.549Z,3.57
2023-02-12T08:08:47.142Z,3.93
2023-02-12T08:11:15.331Z,2.67
2023-02-12T08:13:42.071Z,3.40
2023-02-12T08:16:14.211Z,3.77
2023-02-12T08:18:41.036Z,4.10
2023-02-12T08:21:13.377Z,5.53
2023-02-12T08:23:40.326Z,4.30
2023-02-12T08:26:08.094Z,11.90
2023-02-12T08:28:35.104Z,9.57
2023-02-12T08:31:07.823Z,6.03
2023-02-12T08:33:34.675Z,5.50
2023-02-12T08:36:06.720Z,4.13
2023-02-12T08:38:34.205Z,3.60
2023-02-12T08:41:05.749Z,4.10
2023-02-12T08:43:32.824Z,3.53
2023-02-12T08:46:14.030Z,3.60
2023-02-12T08:48:41.730Z,3.70
2023-02-12T08:51:11.882Z,3.80
2023-02-12T08:53:40.543Z,3.40
2023-02-12T08:56:12.273Z,3.90
2023-02-12T08:58:39.803Z,3.70
2023-02-12T09:01:11.530Z,3.30
2023-02-12T09:03:40.475Z,3.90
2023-02-12T09:06:09.069Z,4.40
2023-02-12T09:08:36.793Z,3.67
2023-02-12T09:11:08.309Z,5.03
2023-02-12T09:13:36.352Z,4.00
2023-02-12T09:16:04.732Z,3.23
2023-02-12T09:18:31.992Z,3.20
2023-02-12T09:21:03.338Z,3.00
2023-02-12T09:23:30.006Z,3.50
2023-02-12T09:25:57.260Z,2.87
2023-02-12T09:28:24.518Z,3.33
2023-02-12T09:30:51.674Z,3.33
2023-02-12T09:33:18.703Z,2.70
2023-02-12T09:35:45.524Z,3.20
2023-02-12T09:38:13.397Z,3.40
2023-02-12T09:40:59.466Z,3.50
2023-02-12T09:43:45.365Z,3.23
2023-02-12T09:46:54.433Z,2.50
2023-02-12T09:49:39.640Z,2.80
2023-02-12T09:52:06.878Z,2.70
2023-02-12T09:54:39.091Z,3.20
2023-02-12T09:57:29.720Z,3.27
2023-02-12T10:00:04.906Z,2.90
2023-02-12T10:02:31.686Z,4.07
2023-02-12T10:05:01.921Z,3.97
2023-02-12T10:07:38.892Z,4.90
2023-02-12T10:10:20.515Z,9.33
2023-02-12T10:13:36.816Z,6.80
2023-02-12T10:16:09.193Z,4.17
2023-02-12T10:18:45.217Z,4.20
2023-02-12T10:21:20.916Z,2.60
2023-02-12T10:23:59.882Z,2.97
2023-02-12T10:26:42.880Z,1.80
2023-02-12T10:29:25.170Z,1.60
2023-02-12T10:32:01.684Z,1.33
2023-02-12T10:34:35.820Z,1.80
2023-02-12T10:37:10.393Z,1.97
2023-02-12T10:39:40.303Z,1.83
2023-02-12T10:42:17.422Z,1.77
2023-02-12T10:44:44.237Z,1.50
2023-02-12T10:47:20.009Z,1.47
2023-02-12T10:49:58.815Z,2.47
2023-02-12T10:52:44.107Z,2.20
2023-02-12T10:55:34.843Z,2.00
2023-02-12T10:58:04.125Z,1.97
2023-02-12T11:00:33.461Z,2.30
2023-02-12T11:03:12.269Z,2.40
2023-02-12T11:05:43.899Z,2.37
2023-02-12T11:08:40.432Z,2.00
2023-02-12T11:11:17.503Z,4.07
2023-02-12T11:13:58.200Z,4.90
2023-02-12T11:16:33.432Z,2.90
2023-02-12T11:19:05.523Z,2.50
2023-02-12T11:21:33.646Z,6.47
2023-02-12T11:24:32.765Z,2.93
2023-02-12T11:27:15.420Z,3.27
2023-02-12T11:29:43.833Z,1.60
2023-02-12T11:32:19.222Z,2.37
2023-02-12T11:35:04.406Z,1.90
2023-02-12T11:37:33.488Z,1.60
2023-02-12T11:40:00.196Z,1.43
2023-02-12T11:42:27.757Z,7.50
2023-02-12T11:44:58.614Z,2.80
2023-02-12T11:47:35.132Z,2.27
2023-02-12T11:50:18.942Z,1.07
2023-02-12T11:52:49.736Z,0.93
2023-02-12T11:55:23.429Z,2.03
2023-02-12T11:57:52.489Z,1.47
2023-02-12T12:00:29.131Z,1.53
2023-02-12T12:03:07.608Z,1.67
2023-02-12T12:05:40.867Z,0.93
2023-02-12T12:08:32.315Z,1.80
2023-02-12T12:11:11.506Z,1.10
2023-02-12T12:13:43.830Z,1.77
2023-02-12T12:16:32.911Z,2.03
2023-02-12T12:19:44.609Z,1.30
2023-02-12T12:22:20.951Z,1.00
2023-02-12T12:24:56.722Z,0.93
2023-02-12T12:28:04.067Z,1.27
2023-02-12T12:30:49.247Z,1.30
2023-02-12T12:33:22.188Z,1.30
2023-02-12T12:36:10.238Z,1.30
2023-02-12T12:38:49.309Z,0.83
2023-02-12T12:41:25.615Z,2.00
2023-02-12T12:44:14.011Z,0.90
2023-02-12T12:46:48.706Z,1.03
2023-02-12T12:49:24.458Z,1.20
2023-02-12T12:52:04.081Z,0.70
2023-02-12T12:54:44.978Z,0.70
2023-02-12T12:57:35.150Z,0.50
2023-02-12T13:00:35.317Z,0.67
2023-02-12T13:03:15.486Z,0.30
2023-02-12T13:05:57.196Z,1.40
2023-02-12T13:08:38.315Z,4.00
2023-02-12T13:11:52.989Z,0.93
2023-02-12T13:14:45.112Z,1.13
2023-02-12T13:17:20.736Z,0.70
2023-02-12T13:20:01.276Z,1.90
2023-02-12T13:22:37.119Z,3.63
2023-02-12T13:25:21.156Z,1.60
2023-02-12T13:27:48.767Z,0.73
2023-02-12T13:30:18.337Z,0.77
2023-02-12T13:32:51.414Z,1.00
2023-02-12T13:35:25.274Z,1.10
2023-02-12T13:37:54.080Z,1.03
2023-02-12T13:40:26.422Z,0.77
2023-02-12T13:42:57.075Z,0.70
2023-02-12T13:45:30.535Z,0.77
2023-02-12T13:48:01.797Z,0.80
2023-02-12T13:50:46.072Z,0.73
2023-02-12T13:53:18.679Z,1.30
2023-02-12T13:55:57.712Z,1.07
2023-02-12T13:58:31.167Z,0.60
2023-02-12T14:01:18.430Z,0.90
2023-02-12T14:03:45.126Z,0.60
2023-02-12T14:06:17.017Z,0.87
2023-02-12T14:09:19.015Z,1.07
2023-02-12T14:11:51.631Z,0.70
2023-02-12T14:14:27.984Z,0.70
2023-02-12T14:16:54.860Z,0.93
2023-02-12T14:19:54.497Z,1.47
2023-02-12T14:22:27.482Z,0.80
2023-02-12T14:24:57.894Z,2.33
2023-02-12T14:27:36.382Z,1.13
2023-02-12T14:30:12.218Z,0.60
2023-02-12T14:32:55.443Z,0.70
2023-02-12T14:35:33.144Z,1.10
2023-02-12T14:38:30.346Z,1.90
2023-02-12T14:41:34.259Z,1.23
2023-02-12T14:44:23.428Z,2.20
2023-02-12T14:46:55.103Z,1.77
2023-02-12T14:49:39.980Z,1.00
2023-02-12T14:52:14.761Z,0.40
2023-02-12T14:54:44.522Z,0.50
2023-02-12T14:57:20.380Z,0.70
2023-02-12T14:59:48.337Z,0.60
2023-02-12T15:02:25.809Z,0.87
2023-02-12T15:04:54.506Z,0.57
2023-02-12T15:07:28.358Z,0.87
2023-02-12T15:10:10.284Z,0.83
2023-02-12T15:12:47.968Z,8.87
2023-02-12T15:15:28.178Z,18.90
2023-02-12T15:18:07.590Z,4.30
2023-02-12T15:20:38.920Z,1.33
2023-02-12T15:23:34.887Z,1.33
2023-02-12T15:26:02.266Z,0.50
2023-02-12T15:28:33.753Z,1.70
2023-02-12T15:31:02.194Z,1.73
2023-02-12T15:33:34.722Z,1.77
2023-02-12T15:36:02.499Z,2.37
2023-02-12T15:38:36.240Z,1.90
2023-02-12T15:41:04.946Z,1.40
2023-02-12T15:43:36.546Z,1.10
2023-02-12T15:46:06.477Z,1.43
2023-02-12T15:48:35.719Z,1.47
2023-02-12T15:51:16.891Z,2.20
2023-02-12T15:53:44.559Z,2.13
2023-02-12T15:56:17.369Z,1.47
2023-02-12T15:58:48.419Z,0.97
2023-02-12T16:01:17.673Z,0.70
2023-02-12T16:03:49.508Z,0.80
2023-02-12T16:06:16.947Z,0.60
2023-02-12T16:08:46.516Z,1.77
2023-02-12T16:11:14.413Z,0.90
2023-02-12T16:13:50.273Z,1.27
2023-02-12T16:16:21.834Z,2.10
2023-02-12T16:19:16.265Z,2.73
2023-02-12T16:21:43.129Z,2.23
2023-02-12T16:24:46.692Z,2.40
2023-02-12T16:27:20.408Z,3.20
2023-02-12T16:30:10.777Z,1.30
2023-02-12T16:32:42.889Z,1.20
2023-02-12T16:35:09.522Z,2.30
2023-02-12T16:37:39.298Z,2.13
2023-02-12T16:40:12.163Z,1.67
2023-02-12T16:42:39.483Z,1.80
2023-02-12T16:45:25.199Z,2.67
2023-02-12T16:47:58.378Z,2.60
2023-02-12T16:50:30.071Z,1.53
2023-02-12T16:53:06.182Z,0.67
2023-02-12T16:55:33.202Z,0.90
2023-02-12T16:58:00.981Z,0.70
2023-02-12T17:00:27.696Z,1.00
2023-02-12T17:02:55.941Z,0.50
2023-02-12T17:05:23.464Z,0.30
2023-02-12T17:07:50.408Z,0.30
2023-02-12T17:10:17.876Z,0.60
2023-02-12T17:12:46.544Z,0.80
2023-02-12T17:15:20.346Z,0.40
2023-02-12T17:17:47.095Z,0.40
2023-02-12T17:20:13.964Z,0.40
2023-02-12T17:22:43.457Z,0.33
2023-02-12T17:25:10.753Z,0.57
2023-02-12T17:27:38.248Z,0.80
2023-02-12T17:30:07.166Z,0.70
2023-02-12T17:32:33.923Z,0.50
2023-02-12T17:35:00.636Z,0.63
2023-02-12T17:37:27.390Z,0.53
2023-02-12T17:39:55.964Z,0.60
2023-02-12T17:42:22.650Z,0.70
2023-02-12T17:44:49.757Z,1.83
2023-02-12T17:47:16.398Z,2.90
2023-02-12T17:49:43.243Z,0.83
2023-02-12T17:52:09.955Z,0.63
2023-02-12T17:54:37.139Z,2.00
2023-02-12T17:57:04.025Z,2.10
2023-02-12T17:59:30.665Z,1.17
2023-02-12T18:01:57.373Z,0.93
2023-02-12T18:04:24.045Z,1.00
2023-02-12T18:06:50.717Z,0.73
2023-02-12T18:09:17.445Z,0.97
2023-02-12T18:11:44.199Z,0.60
2023-02-12T18:14:11.770Z,0.60
2023-02-12T18:16:38.812Z,0.70
2023-02-12T18:19:05.964Z,0.50
2023-02-12T18:21:34.975Z,0.40
2023-02-12T18:24:01.863Z,0.67
2023-02-12T18:26:28.535Z,0.50
2023-02-12T18:28:58.511Z,0.40
2023-02-12T18:31:25.713Z,0.33
2023-02-12T18:33:52.543Z,0.90
2023-02-12T18:36:21.126Z,0.90
2023-02-12T18:38:49.910Z,1.20
2023-02-12T18:41:23.789Z,1.03
2023-02-12T18:43:50.465Z,1.00
2023-02-12T18:46:22.470Z,1.47
2023-02-12T18:48:49.979Z,1.10
2023-02-12T18:51:21.204Z,0.60
2023-02-12T18:53:48.165Z,0.90
2023-02-12T18:56:14.902Z,1.40
2023-02-12T18:58:41.771Z,1.77
2023-02-12T19:01:19.544Z,0.97
2023-02-12T19:03:47.924Z,0.47
2023-02-12T19:06:15.165Z,0.60
2023-02-12T19:08:42.422Z,1.60
2023-02-12T19:11:10.712Z,1.60
2023-02-12T19:13:37.703Z,2.17
2023-02-12T19:16:09.339Z,2.53
2023-02-12T19:18:35.990Z,3.13
2023-02-12T19:21:11.111Z,3.60
2023-02-12T19:23:38.101Z,2.17
2023-02-12T19:26:06.920Z,1.00
2023-02-12T19:28:38.585Z,1.17
2023-02-12T19:31:18.829Z,1.47
2023-02-12T19:33:46.774Z,2.00
2023-02-12T19:36:16.219Z,1.40
2023-02-12T19:38:43.275Z,1.20
2023-02-12T19:41:12.313Z,1.50
2023-02-12T19:43:39.621Z,1.73
2023-02-12T19:46:11.885Z,1.43
2023-02-12T19:48:38.975Z,1.20
2023-02-12T19:51:06.609Z,1.20
2023-02-12T19:53:33.830Z,1.20
2023-02-12T19:56:02.221Z,1.00
2023-02-12T19:58:30.545Z,1.13
2023-02-12T20:00:58.082Z,1.07
2023-02-12T20:03:26.546Z,0.93
2023-02-12T20:06:05.336Z,1.10
2023-02-12T20:08:33.093Z,1.90
2023-02-12T20:10:59.847Z,1.60
2023-02-12T20:13:26.657Z,1.13
2023-02-12T20:15:53.920Z,1.33
2023-02-12T20:18:20.884Z,1.30
2023-02-12T20:20:47.531Z,0.87
2023-02-12T20:23:14.599Z,1.37
2023-02-12T20:25:45.310Z,1.10
2023-02-12T20:28:12.107Z,0.70
2023-02-12T20:30:41.228Z,1.27
2023-02-12T20:33:08.997Z,1.23
2023-02-12T20:35:39.439Z,0.60
2023-02-12T20:38:07.106Z,0.80
2023-02-12T20:40:34.227Z,0.60
2023-02-12T20:43:01.620Z,1.10
2023-02-12T20:45:28.625Z,1.00
2023-02-12T20:47:55.242Z,1.40
2023-02-12T20:50:22.150Z,1.50
2023-02-12T20:52:49.308Z,1.43
2023-02-12T20:55:16.570Z,1.10
2023-02-12T20:57:43.302Z,1.60
2023-02-12T21:00:10.635Z,0.63
2023-02-12T21:02:37.276Z,0.90
2023-02-12T21:05:05.907Z,1.60
2023-02-12T21:07:34.129Z,1.47
2023-02-12T21:10:02.049Z,1.50
2023-02-12T21:12:30.344Z,1.47
2023-02-12T21:14:57.043Z,1.50
2023-02-12T21:17:24.703Z,1.33
2023-02-12T21:19:51.302Z,1.83
2023-02-12T21:22:17.913Z,2.20
2023-02-12T21:24:44.567Z,1.40
2023-02-12T21:27:11.858Z,1.03
2023-02-12T21:29:38.496Z,1.00
2023-02-12T21:32:05.239Z,1.57
2023-02-12T21:34:31.929Z,1.00
2023-02-12T21:36:58.551Z,0.90
2023-02-12T21:39:27.792Z,1.10
2023-02-12T21:42:03.064Z,1.53
2023-02-12T21:44:31.572Z,1.50
2023-02-12T21:46:59.139Z,1.40
2023-02-12T21:49:27.658Z,1.40
2023-02-12T21:52:06.635Z,1.53
2023-02-12T21:54:33.792Z,2.63
2023-02-12T21:57:00.477Z,1.90
2023-02-12T21:59:29.513Z,2.50
2023-02-12T22:01:58.655Z,1.90
2023-02-12T22:04:25.588Z,2.40
2023-02-12T22:06:52.905Z,2.63
2023-02-12T22:09:21.759Z,2.77
2023-02-12T22:11:48.494Z,2.30
2023-02-12T22:14:16.679Z,1.97
2023-02-12T22:16:43.834Z,2.30
2023-02-12T22:19:10.414Z,2.20
2023-02-12T22:21:40.225Z,2.93
2023-02-12T22:24:08.581Z,1.90
2023-02-12T22:26:35.416Z,2.60
2023-02-12T22:29:07.412Z,3.10
2023-02-12T22:31:36.697Z,2.33
2023-02-12T22:34:05.757Z,1.90
2023-02-12T22:36:34.874Z,2.50
2023-02-12T22:39:01.606Z,2.30
2023-02-12T22:41:28.730Z,3.13
2023-02-12T22:43:55.617Z,3.20
2023-02-12T22:46:22.841Z,3.00
2023-02-12T22:48:49.485Z,3.40
2023-02-12T22:51:24.511Z,3.03
2023-02-12T22:53:51.308Z,2.73
2023-02-12T22:56:18.330Z,3.03
2023-02-12T22:58:45.211Z,3.67
2023-02-12T23:01:18.107Z,3.97
2023-02-12T23:03:45.679Z,2.50
2023-02-12T23:06:14.587Z,2.93
2023-02-12T23:08:52.215Z,3.57
2023-02-12T23:11:19.527Z,2.30
2023-02-12T23:13:46.154Z,2.87
2023-02-12T23:16:13.040Z,2.70
2023-02-12T23:18:39.669Z,2.60
2023-02-12T23:21:06.472Z,2.77
2023-02-12T23:23:35.856Z,2.83
2023-02-12T23:26:02.791Z,2.47
2023-02-12T23:28:29.972Z,3.40
2023-02-12T23:30:57.080Z,2.73
2023-02-12T23:33:24.313Z,2.40
2023-02-12T23:35:50.965Z,3.70
2023-02-12T23:38:17.630Z,4.10
2023-02-12T23:40:44.593Z,3.70
2023-02-12T23:43:11.210Z,3.17
2023-02-12T23:45:37.903Z,4.40
2023-02-12T23:48:04.817Z,3.80
2023-02-12T23:50:31.479Z,4.13
2023-02-12T23:52:59.128Z,3.63
2023-02-12T23:55:25.766Z,2.70
2023-02-12T23:57:52.442Z,3.00
